Time;durP1;ratioP1;P1;durP2;ratioP2;P2;SDS_P1;SDS_P2;PMS_P1;PMS_P2;Temp;Humidity;BMP_temperature;BMP_pressure;BME280_temperature;BME280_humidity;BME280_pressure;Samples;Min_cycle;Max_cycle;Signal;HPM_P1;HPM_P2
2021/11/01 00:01:49;;;;;;;1.90;0.60;;;;;;;14.62;78.46;99220.18;113142;1195;77090;-81
2021/11/01 00:05:00;;;;;;;1.00;0.40;;;;;;;14.57;78.19;99217.80;113054;1195;71108;-80
2021/11/01 00:07:59;;;;;;;;;;;;;;;;;;;;;
2021/11/01 00:11:06;;;;;;;1.70;0.50;;;;;;;14.41;78.58;99213.62;113023;1195;61879;-83
2021/11/01 00:14:29;;;;;;;2.00;0.60;;;;;;;14.34;78.42;99210.32;112897;1194;61619;-80
2021/11/01 00:17:38;;;;;;;3.20;0.60;;;;;;;14.28;78.15;99214.20;112882;1195;76896;-82
2021/11/01 00:20:10;;;;;;;1.20;0.60;;;;;;;14.23;77.93;99215.33;113046;1193;71032;-80
2021/11/01 00:22:56;;;;;;;4.50;0.50;;;;;;;14.19;77.53;99206.55;113200;1194;72465;-88
2021/11/01 00:25:54;;;;;;;;;;;;;;;;;;;;;
2021/11/01 00:28:48;;;;;;;3.80;0.50;;;;;;;14.12;76.85;99217.06;112916;1195;61884;-80
2021/11/01 00:32:05;;;;;;;1.60;0.60;;;;;;;14.08;77.14;99213.48;113016;1194;77725;-81
2021/11/01 00:34:54;;;;;;;1.70;0.60;;;;;;;14.03;77.05;99210.90;112609;1195;71897;-78
2021/11/01 00:37:33;;;;;;;1.10;0.30;;;;;;;13.99;77.17;99211.56;112857;1193;73573;-78
2021/11/01 00:40:30;;;;;;;;;;;;;;;;;;;;;
2021/11/01 00:44:00;;;;;;;1.00;0.40;;;;;;;13.93;76.86;99215.73;112401;1195;60594;-80
2021/11/01 00:47:11;;;;;;;2.40;0.30;;;;;;;13.91;76.90;99207.70;112538;1195;75517;-82
2021/11/01 00:50:39;;;;;;;0.70;0.40;;;;;;;13.88;77.43;99200.92;113337;1186;70982;-88
2021/11/01 00:54:29;;;;;;;2.20;0.60;;;;;;;13.84;77.90;99209.53;112657;1195;72840;-83
2021/11/01 00:57:38;;;;;;;1.80;0.50;;;;;;;13.79;78.15;99217.25;112396;1195;61777;-86
2021/11/01 01:00:49;;;;;;;;;;;;;;;;;;;;;
2021/11/01 01:04:18;;;;;;;0.50;0.10;;;;;;;13.67;78.32;99250.47;112602;1195;76773;-79
2021/11/01 01:07:46;;;;;;;1.20;0.40;;;;;;;13.62;78.55;99246.49;112647;1195;71091;-80
2021/11/01 01:10:34;;;;;;;1.20;0.50;;;;;;;13.53;78.53;99238.15;112725;1195;73748;-80
2021/11/01 01:13:38;;;;;;;;;;;;;;;;;;;;;
2021/11/01 01:16:27;;;;;;;1.30;0.50;;;;;;;13.44;78.41;99217.84;113153;1194;61802;-80
2021/11/01 01:19:20;;;;;;;2.00;0.40;;;;;;;13.38;78.25;99214.79;112635;1195;75341;-79
2021/11/01 01:23:10;;;;;;;2.50;0.70;;;;;;;13.34;78.19;99212.31;112734;1194;72057;-80
2021/11/01 01:26:14;;;;;;;0.80;0.40;;;;;;;13.26;78.20;99195.27;112574;1195;73706;-82
2021/11/01 01:29:39;;;;;;;2.40;0.30;;;;;;;13.19;78.43;99208.89;112997;1195;61999;-79
2021/11/01 01:33:32;;;;;;;2.50;0.40;;;;;;;13.14;78.78;99203.61;112793;1195;61853;-82
2021/11/01 01:36:10;;;;;;;2.60;0.40;;;;;;;13.10;79.19;99217.65;112975;1195;75461;-80
2021/11/01 01:38:38;;;;;;;0.70;0.30;;;;;;;13.03;79.38;99200.66;113018;1187;71544;-82
2021/11/01 01:41:41;;;;;;;1.10;0.20;;;;;;;12.99;79.53;99199.07;113053;1195;73138;-79
2021/11/01 01:44:51;;;;;;;1.20;0.40;;;;;;;12.95;79.75;99204.02;112853;1195;61929;-85
2021/11/01 01:47:34;;;;;;;;;;;;;;;;;;;;;
2021/11/01 01:51:02;;;;;;;3.90;0.40;;;;;;;12.85;79.98;99215.33;113140;1195;76532;-77
2021/11/01 01:54:20;;;;;;;;;;;;;;;;;;;;;
2021/11/01 01:57:38;;;;;;;4.00;0.60;;;;;;;12.77;80.47;99226.13;112842;1194;72395;-80
2021/11/01 02:01:06;;;;;;;5.80;0.50;;;;;;;12.74;80.43;99229.72;112906;1195;61950;-80
2021/11/01 02:03:12;;;;;;;1.60;0.50;;;;;;;12.72;80.32;99230.45;112949;1194;61910;-80
2021/11/01 02:06:52;;;;;;;7.60;0.70;;;;;;;12.71;80.42;99229.32;112600;1195;75504;-80
2021/11/01 02:09:43;;;;;;;;;;;;;;;;;;;;;
2021/11/01 02:12:28;;;;;;;3.70;0.80;;;;;;;12.68;80.43;99211.02;112757;1195;74147;-84
2021/11/01 02:15:37;;;;;;;1.90;0.70;;;;;;;12.66;80.31;99197.20;112988;1193;61759;-82
2021/11/01 02:18:39;;;;;;;;;;;;;;;;;;;;;
2021/11/01 02:22:26;;;;;;;2.00;0.60;;;;;;;12.59;80.42;99186.48;113052;1195;76504;-82
2021/11/01 02:26:13;;;;;;;2.70;0.40;;;;;;;12.55;80.58;99208.52;112662;1198;71024;-78
2021/11/01 02:29:31;;;;;;;;;;;;;;;;;;;;;
2021/11/01 02:32:29;;;;;;;4.10;0.50;;;;;;;12.50;81.20;99212.30;112996;1195;62841;-78
2021/11/01 02:35:56;;;;;;;2.90;0.80;;;;;;;12.48;81.68;99214.70;113383;1193;65004;-79
2021/11/01 02:38:44;;;;;;;4.60;0.70;;;;;;;12.45;82.10;99210.25;112836;1193;76459;-80
2021/11/01 02:42:08;;;;;;;3.70;0.50;;;;;;;12.41;82.13;99197.48;113044;1195;70715;-82
2021/11/01 02:45:38;;;;;;;2.70;0.70;;;;;;;12.36;82.53;99200.54;112497;1195;73584;-86
2021/11/01 02:49:05;;;;;;;6.60;0.70;;;;;;;12.29;82.69;99204.75;112845;1194;63041;-80
2021/11/01 02:52:13;;;;;;;2.00;0.80;;;;;;;12.21;82.86;99196.42;112456;1195;60647;-79
2021/11/01 02:55:27;;;;;;;4.10;0.80;;;;;;;12.15;82.80;99215.46;112974;1195;75593;-81
2021/11/01 02:58:54;;;;;;;6.90;0.90;;;;;;;12.07;83.01;99223.89;113130;1195;72497;-82
2021/11/01 03:02:14;;;;;;;11.70;1.50;;;;;;;11.98;82.94;99229.21;112750;1195;73909;-83
2021/11/01 03:05:42;;;;;;;6.50;1.50;;;;;;;11.91;82.63;99231.20;113043;1193;61823;-80
2021/11/01 03:09:10;;;;;;;4.90;1.10;;;;;;;11.80;82.91;99239.21;113084;1194;61744;-80
2021/11/01 03:12:08;;;;;;;;;;;;;;;;;;;;;
2021/11/01 03:15:44;;;;;;;4.60;1.10;;;;;;;11.61;83.46;99231.95;112787;1195;71978;-80
2021/11/01 03:18:47;;;;;;;6.20;1.70;;;;;;;11.55;83.65;99237.30;112320;1196;72543;-79
2021/11/01 03:22:04;;;;;;;;;;;;;;;;;;;;;
2021/11/01 03:25:17;;;;;;;;;;;;;;;;;;;;;
2021/11/01 03:28:35;;;;;;;12.70;1.60;;;;;;;11.45;84.10;99246.86;112622;1196;76879;-82
2021/11/01 03:31:33;;;;;;;10.00;1.80;;;;;;;11.44;83.87;99243.77;112728;1196;73399;-79
2021/11/01 03:34:31;;;;;;;;;;;;;;;;;;;;;
2021/11/01 03:38:02;;;;;;;10.60;1.60;;;;;;;11.43;83.91;99280.90;112858;1196;62002;-79
2021/11/01 03:40:55;;;;;;;10.40;1.40;;;;;;;11.42;83.72;99281.03;112447;1196;62102;-82
2021/11/01 03:43:54;;;;;;;3.20;1.20;;;;;;;11.39;83.84;99276.48;112874;1195;75500;-79
2021/11/01 03:46:51;;;;;;;6.00;2.00;;;;;;;11.36;83.79;99269.27;112674;1197;70976;-78
2021/11/01 03:50:02;;;;;;;4.60;1.00;;;;;;;11.35;83.40;99259.88;112366;1196;72538;-79
2021/11/01 03:53:13;;;;;;;7.20;1.40;;;;;;;11.35;83.32;99257.40;112497;1196;61977;-79
2021/11/01 03:56:41;;;;;;;7.60;1.40;;;;;;;11.35;83.25;99254.73;112746;1194;61806;-79
2021/11/01 04:00:09;;;;;;;5.90;1.60;;;;;;;11.35;83.15;99243.99;112750;1196;77982;-81
2021/11/01 04:03:29;;;;;;;11.70;2.20;;;;;;;11.35;82.96;99255.92;112755;1195;70832;-79
2021/11/01 04:06:56;;;;;;;10.30;1.90;;;;;;;11.34;82.81;99250.08;112732;1188;72552;-77
2021/11/01 04:09:22;;;;;;;9.70;1.90;;;;;;;11.34;82.68;99261.02;112513;1189;61841;-80
2021/11/01 04:12:50;;;;;;;12.90;2.50;;;;;;;11.35;82.65;99267.36;112815;1194;61764;-80
2021/11/01 04:16:21;;;;;;;9.50;1.80;;;;;;;11.35;82.23;99277.58;112772;1195;75559;-81
2021/11/01 04:19:33;;;;;;;7.10;1.10;;;;;;;11.36;81.89;99278.66;112775;1195;70721;-82
2021/11/01 04:21:58;;;;;;;6.80;1.40;;;;;;;11.37;81.58;99280.09;112824;1179;72465;-79
2021/11/01 04:25:27;;;;;;;11.30;1.60;;;;;;;11.37;81.49;99267.34;112594;1195;61805;-78
2021/11/01 04:28:55;;;;;;;6.40;2.00;;;;;;;11.38;81.12;99282.97;112168;1196;61999;-78
2021/11/01 04:31:32;;;;;;;9.00;1.80;;;;;;;11.39;81.01;99281.91;112745;1195;74583;-80
2021/11/01 04:37:31;;;;;;;9.60;2.50;;;;;;;11.38;80.78;99285.89;112942;1195;71189;-83
2021/11/01 04:40:17;;;;;;;7.80;1.40;;;;;;;11.36;80.81;99284.52;112952;1195;62003;-80
2021/11/01 04:54:48;;;;;;;11.60;1.80;;;;;;;11.28;80.87;99276.75;112831;1195;61872;-79
2021/11/01 04:57:40;;;;;;;10.10;1.20;;;;;;;11.27;80.92;99273.73;112654;1195;60057;-81
2021/11/01 05:00:52;;;;;;;7.80;1.70;;;;;;;11.25;80.86;99266.64;112752;1194;75444;-78
2021/11/01 05:03:37;;;;;;;9.80;1.60;;;;;;;11.22;80.86;99246.61;112407;1195;72221;-79
2021/11/01 05:06:17;;;;;;;;;;;;;;;;;;;;;
2021/11/01 05:12:30;;;;;;;10.10;1.70;;;;;;;11.16;80.81;99263.73;112815;1194;62696;-89
2021/11/01 05:24:58;;;;;;;;;;;;;;;;;;;;;
2021/11/01 05:31:42;;;;;;;;;;;;;;;;;;;;;
2021/11/01 05:34:43;;;;;;;4.60;0.90;;;;;;;11.08;79.88;99263.48;113454;1194;70648;-81
2021/11/01 05:38:10;;;;;;;9.20;1.30;;;;;;;11.08;79.67;99268.36;112999;1195;74694;-78
2021/11/01 05:40:43;;;;;;;8.10;1.60;;;;;;;11.07;79.50;99266.31;112634;1195;61841;-80
2021/11/01 05:43:10;;;;;;;8.20;1.90;;;;;;;11.07;79.39;99264.88;112896;1195;61943;-78
2021/11/01 05:46:08;;;;;;;;;;;;;;;;;;;;;
2021/11/01 05:48:36;;;;;;;10.70;2.00;;;;;;;11.07;79.19;99274.31;112723;1194;70921;-77
2021/11/01 05:51:38;;;;;;;5.00;1.20;;;;;;;11.08;78.97;99274.42;112628;1194;73594;-76
2021/11/01 05:54:14;;;;;;;8.80;2.10;;;;;;;11.11;78.92;99276.05;112530;1193;62610;-79
2021/11/01 05:57:11;;;;;;;;;;;;;;;;;;;;;
2021/11/01 06:00:03;;;;;;;8.80;1.70;;;;;;;11.10;78.84;99260.41;112579;1193;76823;-81
2021/11/01 06:15:08;;;;;;;6.50;1.50;;;;;;;10.98;79.12;99269.00;112410;1196;74405;-79
2021/11/01 06:18:09;;;;;;;10.60;1.60;;;;;;;10.97;79.28;99275.06;112354;1194;71119;-83
2021/11/01 06:20:44;;;;;;;8.40;1.30;;;;;;;10.95;79.42;99284.54;112236;1195;72774;-76
2021/11/01 06:23:38;;;;;;;6.90;1.40;;;;;;;10.93;79.53;99293.12;112489;1195;61368;-79
2021/11/01 06:26:15;;;;;;;5.60;1.60;;;;;;;10.91;79.52;99307.91;112373;1195;62244;-78
2021/11/01 06:28:44;;;;;;;8.60;0.90;;;;;;;10.88;79.57;99322.45;112327;1194;76775;-75
2021/11/01 06:31:18;;;;;;;5.40;0.90;;;;;;;10.86;79.49;99325.89;112356;1194;71842;-78
2021/11/01 06:34:20;;;;;;;5.20;1.20;;;;;;;10.86;79.35;99323.68;112492;1194;72530;-75
2021/11/01 06:39:52;;;;;;;;;;;;;;;10.85;79.29;99324.91;112696;1195;60223;-76
2021/11/01 06:42:28;;;;;;;7.60;0.80;;;;;;;10.83;79.35;99323.95;112667;1195;76737;-78
2021/11/01 06:51:29;;;;;;;6.40;1.20;;;;;;;10.78;79.11;99329.05;112231;1196;62651;-79
2021/11/01 06:54:24;;;;;;;6.70;1.00;;;;;;;10.79;78.95;99326.96;112490;1195;61765;-82
2021/11/01 08:23:39;;;;;;;4.20;1.50;;;;;;;11.34;78.73;99376.83;112583;1195;61885;-77
2021/11/01 08:30:20;;;;;;;5.90;2.10;;;;;;;11.49;78.30;99385.73;112079;1196;72134;-78
2021/11/01 09:21:12;;;;;;;2.10;0.80;;;;;;;11.90;75.06;99386.54;111852;1198;61883;-74
2021/11/01 09:24:27;;;;;;;;;;;;;;;;;;;;;
2021/11/01 09:27:36;;;;;;;5.80;2.50;;;;;;;12.05;74.59;99404.70;112439;1195;71347;-78
2021/11/01 09:36:09;;;;;;;;;;;;;;;;;;;;;
2021/11/01 09:42:02;;;;;;;17.90;5.80;;;;;;;12.41;73.20;99397.14;112095;1197;71426;-77
2021/11/01 09:44:46;;;;;;;6.20;1.80;;;;;;;12.47;72.85;99396.77;112522;1195;72847;-77
2021/11/01 09:47:19;;;;;;;5.70;2.20;;;;;;;12.54;72.54;99408.09;112377;1195;61864;-77
2021/11/01 09:49:46;;;;;;;14.90;7.30;;;;;;;12.61;72.06;99409.98;112349;1196;61858;-78
2021/11/01 09:52:57;;;;;;;8.80;2.10;;;;;;;12.69;71.62;99402.20;112231;1195;74433;-75
2021/11/01 10:01:43;;;;;;;9.50;3.20;;;;;;;13.00;69.75;99396.71;112448;1195;63417;-74
2021/11/01 10:04:52;;;;;;;10.70;6.00;;;;;;;13.12;69.73;99384.37;112309;1193;61737;-78
2021/11/01 10:07:45;;;;;;;8.80;2.30;;;;;;;13.22;68.99;99372.84;111820;1199;75779;-77
2021/11/01 10:10:14;;;;;;;9.20;3.50;;;;;;;13.26;66.47;99380.51;112385;1196;71425;-79
2021/11/01 10:13:17;;;;;;;5.90;1.00;;;;;;;13.26;66.36;99376.84;112406;1193;72068;-78
2021/11/01 10:18:47;;;;;;;;;;;;;;;13.35;65.90;99374.23;112421;1196;61781;-77
2021/11/01 10:21:36;;;;;;;6.40;1.80;;;;;;;13.42;66.06;99379.42;112393;1195;75450;-76
2021/11/01 10:24:24;;;;;;;14.00;4.00;;;;;;;13.51;65.02;99376.30;112305;1196;71225;-78
2021/11/01 10:26:58;;;;;;;12.20;4.80;;;;;;;13.54;63.71;99377.70;112204;1196;72603;-74
2021/11/01 10:29:35;;;;;;;;;;;;;;;13.56;63.58;99369.14;112385;1193;60620;-76
2021/11/01 10:32:06;;;;;;;9.90;2.10;;;;;;;13.53;62.75;99364.63;112509;1196;61820;-77
2021/11/01 10:34:56;;;;;;;8.30;2.70;;;;;;;13.55;62.53;99364.77;112467;1194;76515;-75
2021/11/01 10:37:27;;;;;;;2.30;0.80;;;;;;;13.55;61.98;99368.58;112316;1196;71118;-78
2021/11/01 10:39:57;;;;;;;6.50;1.30;;;;;;;13.60;61.95;99370.35;112426;1196;73619;-76
2021/11/01 10:43:23;;;;;;;6.10;3.90;;;;;;;13.64;62.30;99371.61;112418;1197;62663;-79
2021/11/01 10:47:00;;;;;;;;;;;;;;;;;;;;;
2021/11/01 10:57:09;;;;;;;;;;;;;;;;;;;;;
2021/11/01 11:16:15;;;;;;;;;;;;;;;;;;;;;
2021/11/01 11:19:58;;;;;;;4.50;0.70;;;;;;;13.57;61.17;99361.54;112397;1196;61836;-77
2021/11/01 11:47:25;;;;;;;3.60;1.20;;;;;;;13.86;59.02;99363.98;112374;1196;61880;-78
2021/11/01 11:50:19;;;;;;;2.30;0.90;;;;;;;13.83;58.65;99361.94;112314;1196;61969;-76
2021/11/01 11:53:05;;;;;;;;;;;;;;;;;;;;;
2021/11/01 11:55:59;;;;;;;3.40;1.00;;;;;;;14.02;57.73;99363.97;112392;1196;71221;-76
2021/11/01 11:58:50;;;;;;;3.20;0.50;;;;;;;14.14;57.66;99364.23;112359;1194;73648;-77
2021/11/01 12:02:13;;;;;;;2.30;0.50;;;;;;;14.13;57.48;99368.30;112352;1195;61872;-77
2021/11/01 12:04:51;;;;;;;1.80;0.90;;;;;;;14.14;56.98;99366.40;112258;1196;61932;-77
2021/11/01 12:08:49;;;;;;;5.10;0.80;;;;;;;14.16;57.01;99364.52;112497;1195;76382;-78
2021/11/01 12:17:22;;;;;;;4.30;0.60;;;;;;;15.09;54.09;99352.34;111910;1198;62058;-77
2021/11/01 12:20:23;;;;;;;;;;;;;;;;;;;;;
2021/11/01 12:23:02;;;;;;;3.20;0.80;;;;;;;15.81;51.48;99357.89;112528;1195;75435;-79
2021/11/01 12:26:40;;;;;;;4.50;0.90;;;;;;;15.87;51.81;99347.04;112411;1195;72192;-75
2021/11/01 12:29:08;;;;;;;2.60;0.80;;;;;;;16.15;51.24;99354.36;112173;1195;72634;-78
2021/11/01 12:31:42;;;;;;;6.10;1.00;;;;;;;16.53;49.77;99346.45;112411;1196;61905;-81
2021/11/01 12:34:17;;;;;;;4.10;0.60;;;;;;;16.28;49.45;99347.42;112488;1195;61863;-77
2021/11/01 12:37:14;;;;;;;4.70;0.60;;;;;;;15.79;50.34;99341.11;112494;1194;76494;-77
2021/11/01 12:42:56;;;;;;;8.70;0.80;;;;;;;16.85;49.17;99346.21;112595;1186;74024;-74
2021/11/01 12:46:06;;;;;;;4.30;0.90;;;;;;;17.42;47.49;99354.69;112536;1193;61863;-75
2021/11/01 13:00:52;;;;;;;2.60;0.60;;;;;;;18.42;44.65;99342.96;112474;1195;61914;-76
2021/11/01 13:03:25;;;;;;;2.10;0.60;;;;;;;18.70;44.10;99346.55;112617;1195;61743;-76
2021/11/01 13:06:00;;;;;;;3.40;0.80;;;;;;;18.62;43.76;99348.71;112403;1193;74799;-76
2021/11/01 13:08:35;;;;;;;0.80;0.40;;;;;;;18.10;45.09;99339.54;112559;1193;71234;-76
2021/11/01 13:19:33;;;;;;;2.50;0.40;;;;;;;18.67;43.54;99348.70;112412;1195;76483;-79
2021/11/01 13:22:25;;;;;;;4.30;0.80;;;;;;;18.02;44.85;99348.38;112593;1195;70705;-79
2021/11/01 13:25:21;;;;;;;3.90;0.50;;;;;;;17.95;45.51;99344.09;112219;1195;72415;-76
2021/11/01 13:39:51;;;;;;;3.80;0.90;;;;;;;16.98;46.75;99342.92;112527;1193;73018;-82
2021/11/01 13:42:22;;;;;;;5.70;1.20;;;;;;;16.40;48.38;99342.84;112363;1194;61875;-81
2021/11/01 13:45:11;;;;;;;3.50;0.70;;;;;;;16.07;48.92;99346.00;112446;1193;60072;-80
2021/11/01 13:48:20;;;;;;;1.60;1.00;;;;;;;15.67;49.99;99343.30;112499;1193;76419;-81
2021/11/01 13:50:47;;;;;;;3.20;1.20;;;;;;;15.43;51.26;99341.98;112497;1195;71347;-83
2021/11/01 13:57:03;;;;;;;5.40;0.70;;;;;;;15.65;50.80;99347.96;112318;1197;61828;-80
2021/11/01 14:12:48;;;;;;;2.60;0.70;;;;;;;15.15;52.18;99349.42;112434;1195;61896;-77
2021/11/01 15:03:55;;;;;;;2.20;0.70;;;;;;;16.10;51.77;99356.05;112279;1195;61771;-82
2021/11/01 15:36:05;;;;;;;4.10;1.50;;;;;;;16.46;48.17;99383.83;112345;1194;75455;-80
2021/11/01 15:42:33;;;;;;;4.20;0.70;;;;;;;15.19;51.57;99384.00;112465;1195;73340;-74
2021/11/01 16:18:15;;;;;;;4.60;1.20;;;;;;;12.05;62.63;99394.31;111980;1198;61821;-79
2021/11/01 16:20:48;;;;;;;7.10;1.40;;;;;;;11.95;63.00;99393.40;112222;1195;74622;-76
2021/11/01 16:24:06;;;;;;;7.40;1.50;;;;;;;11.86;63.52;99394.21;112560;1193;72029;-76
2021/11/01 16:26:56;;;;;;;5.10;1.00;;;;;;;11.76;63.83;99396.28;112465;1193;71313;-78
2021/11/01 16:30:13;;;;;;;4.90;0.80;;;;;;;11.70;64.18;99397.80;112402;1195;61663;-78
2021/11/01 16:33:16;;;;;;;2.40;1.20;;;;;;;11.62;64.43;99400.86;112152;1193;61835;-80
2021/11/01 16:35:49;;;;;;;5.00;0.80;;;;;;;11.54;64.95;99400.34;112299;1195;75552;-77
2021/11/01 16:38:28;;;;;;;5.40;0.60;;;;;;;11.46;65.18;99401.20;112734;1193;72128;-76
2021/11/01 16:44:46;;;;;;;;;;;;;;;;;;;;;
2021/11/01 16:47:17;;;;;;;3.60;1.10;;;;;;;11.18;66.41;99398.34;112668;1194;61869;-77
2021/11/01 16:49:48;;;;;;;1.70;0.60;;;;;;;11.09;66.71;99401.94;112498;1193;76378;-78
2021/11/01 16:52:22;;;;;;;3.60;0.80;;;;;;;10.98;67.04;99401.20;112531;1194;69943;-75
2021/11/01 16:54:57;;;;;;;1.10;0.50;;;;;;;10.89;67.68;99401.54;112379;1195;72612;-78
2021/11/01 16:57:42;;;;;;;5.30;1.20;;;;;;;10.83;68.03;99398.50;112504;1195;61964;-74
2021/11/01 17:00:21;;;;;;;4.00;0.80;;;;;;;10.77;68.45;99394.55;112491;1195;61927;-77
2021/11/01 17:03:26;;;;;;;;;;;;;;;;;;;;;
2021/11/01 17:06:32;;;;;;;4.90;0.70;;;;;;;10.65;68.94;99386.88;112309;1193;72081;-75
2021/11/01 17:22:47;;;;;;;12.20;1.10;;;;;;;10.18;70.23;99381.19;112801;1193;71005;-76
2021/11/01 17:35:04;;;;;;;3.70;0.90;;;;;;;9.84;71.61;99386.40;114203;1193;75416;-75
2021/11/01 18:39:42;;;;;;;5.10;0.80;;;;;;;9.25;78.06;99423.06;113456;1195;72688;-77
2021/11/01 18:42:23;;;;;;;2.50;0.70;;;;;;;9.27;78.43;99431.78;113262;1195;62978;-76
2021/11/01 18:51:06;;;;;;;5.10;1.20;;;;;;;9.29;78.25;99438.96;112647;1195;72096;-78
2021/11/01 18:53:35;;;;;;;2.20;1.30;;;;;;;9.27;78.14;99442.58;112775;1194;72775;-78
2021/11/01 18:56:05;;;;;;;5.50;1.10;;;;;;;9.23;78.22;99450.09;112632;1187;61032;-77
2021/11/01 18:59:03;;;;;;;3.20;1.10;;;;;;;9.21;78.07;99445.11;112561;1195;61797;-76
2021/11/01 19:01:35;;;;;;;8.70;1.40;;;;;;;9.17;78.46;99444.30;112795;1195;75359;-77
2021/11/01 19:04:13;;;;;;;7.60;1.20;;;;;;;9.15;78.46;99442.25;112869;1195;71289;-75
2021/11/01 19:07:18;;;;;;;6.00;1.60;;;;;;;9.12;78.68;99440.39;112891;1195;75124;-77
2021/11/01 19:09:57;;;;;;;8.70;1.50;;;;;;;9.09;79.36;99444.85;112815;1194;61813;-78
2021/11/01 20:03:46;;;;;;;6.90;2.00;;;;;;;8.22;81.89;99446.92;112798;1193;69601;-78
2021/11/01 21:26:23;;;;;;;7.60;2.00;;;;;;;7.60;85.69;99450.59;112659;1195;61759;-78
2021/11/01 21:28:52;;;;;;;10.60;2.40;;;;;;;7.55;86.31;99451.50;113505;1194;75190;-77
2021/11/01 21:31:28;;;;;;;6.20;1.80;;;;;;;7.52;86.86;99448.17;112991;1196;71537;-79
2021/11/01 21:34:01;;;;;;;12.40;2.60;;;;;;;7.49;86.72;99442.54;113369;1194;72755;-76
2021/11/01 21:36:37;;;;;;;5.80;1.70;;;;;;;7.51;87.83;99444.54;112742;1194;63117;-78
2021/11/01 21:39:08;;;;;;;3.80;1.40;;;;;;;7.56;88.62;99444.37;112741;1195;61793;-78
2021/11/01 21:41:41;;;;;;;4.70;1.50;;;;;;;7.63;88.21;99446.42;112618;1195;75034;-78
2021/11/01 21:44:08;;;;;;;4.70;1.70;;;;;;;7.69;88.35;99445.45;113536;1194;71112;-78
2021/11/01 21:47:09;;;;;;;5.40;1.40;;;;;;;7.74;88.01;99438.67;112840;1195;72697;-77
2021/11/01 21:49:39;;;;;;;4.90;1.30;;;;;;;7.81;88.02;99432.00;112764;1195;61965;-78
2021/11/01 21:52:11;;;;;;;4.20;1.40;;;;;;;7.85;88.28;99431.67;112849;1195;61868;-77
2021/11/01 21:54:54;;;;;;;3.90;1.40;;;;;;;7.88;87.85;99432.46;112824;1195;75563;-77
2021/11/01 21:58:34;;;;;;;3.90;1.60;;;;;;;7.86;87.29;99437.56;112862;1195;71092;-80
2021/11/01 22:22:42;;;;;;;5.80;1.50;;;;;;;7.43;87.45;99406.46;112323;1197;61885;-78
2021/11/01 22:25:42;;;;;;;4.20;1.80;;;;;;;7.35;87.42;99402.65;112539;1195;75586;-79
2021/11/01 22:42:26;;;;;;;;;;;;;;;7.28;89.13;99402.52;112078;1200;75593;-76
2021/11/01 22:59:15;;;;;;;7.40;2.20;;;;;;;7.26;90.12;99386.11;112830;1197;75891;-78
2021/11/01 23:02:22;;;;;;;4.90;1.60;;;;;;;7.26;89.99;99384.02;112084;1197;71115;-78
2021/11/01 23:33:42;;;;;;;5.50;1.00;;;;;;;6.87;90.82;99386.39;112891;1195;72868;-77
2021/11/01 23:37:10;;;;;;;4.40;1.30;;;;;;;6.84;91.01;99383.94;112733;1194;72968;-76
2021/11/01 23:39:56;;;;;;;7.40;1.10;;;;;;;6.84;91.16;99383.63;113128;1195;61697;-79
2021/11/01 23:43:24;;;;;;;2.10;1.20;;;;;;;6.83;91.88;99383.30;112752;1195;61875;-78
2021/11/01 23:46:12;;;;;;;6.00;1.70;;;;;;;6.85;91.50;99385.23;112787;1195;76492;-79
2021/11/01 23:49:04;;;;;;;5.10;1.60;;;;;;;6.86;91.47;99382.45;112738;1195;71170;-79
2021/11/01 23:52:10;;;;;;;2.30;1.30;;;;;;;6.87;91.67;99386.00;112603;1195;72625;-77
2021/11/01 23:54:49;;;;;;;5.40;1.00;;;;;;;6.88;91.78;99388.52;112516;1196;61848;-78
2021/11/01 23:58:17;;;;;;;3.50;1.30;;;;;;;6.87;91.69;99390.17;112683;1195;61979;-79
